Updated18/09/2018 18:10 
 

GeoURL
free counters
Scottish Weather Network UK Weather Network Cumulus Top Weather Sites

Peebles Weather - Ship Tracking / AIS

Raw Data, Raw Data Expanded

Ignore low humidity and Dew Point values. Something wrong with the sensor.
Daytime temperatures are in direct sunlight so may be higher than official air temperature values.
As with any other website, we log your IP address and browser type in the server logs for diagnostic reasons. Cookies are used to record visit time and gauges preferences. No personal information is stored or processed.

All times are in BST (UTC+1) unless specified.

2018/09/18 16:50 EGPH 181650Z 22016KT 9999 FEW026 16/12 Q0997
16.3°C 0.0 mm 0.0 mm 0.0 mm 1.5 mph 6.9 mph 994.7 hPa 80% X-Ray Solar Flare Level
Planetary K-Index
Planetary K-Index History
Station Warn Rain Snow Flood Wind Ltng Heat Cold Glob Moon Temp Rain 1h Rain Tue Rain 24h Wind 10m Gust Pressure Hum Proton Levels
Lost sensor contact!!! Wind
0.286 m Waxing Gibbous Comfortable F1-N F: A: Kp:0 SSN:0

Ship Tracking

Map from ShipFinder

XHTML 1.1 | CSS